createdAt,value
2022-10-23T00:04:10.294Z,41.96
2022-10-23T00:10:44.178Z,41.98
2022-10-23T00:17:14.938Z,41.95
2022-10-23T00:23:43.107Z,41.65
2022-10-23T00:30:13.926Z,41.92
2022-10-23T00:36:47.839Z,42
2022-10-23T00:43:16.717Z,41.91
2022-10-23T00:49:56.116Z,41.7
2022-10-23T00:56:32.712Z,41.66
2022-10-23T01:03:02.990Z,41.9
2022-10-23T01:09:58.167Z,42.03
2022-10-23T01:17:17.923Z,41.96
2022-10-23T01:24:17.236Z,42.03
2022-10-23T01:31:22.822Z,42.01
2022-10-23T01:38:16.099Z,41.86
2022-10-23T01:45:14.094Z,41.76
2022-10-23T01:52:10.129Z,41.81
2022-10-23T01:58:59.200Z,41.64
2022-10-23T02:05:45.764Z,41.79
2022-10-23T02:12:23.086Z,41.75
2022-10-23T02:19:35.374Z,41.86
2022-10-23T02:26:42.414Z,42.04
2022-10-23T02:33:33.200Z,42
2022-10-23T02:40:13.165Z,41.95
2022-10-23T02:47:13.171Z,41.96
2022-10-23T02:54:29.839Z,41.98
2022-10-23T03:01:31.022Z,41.92
2022-10-23T03:08:22.828Z,41.94
2022-10-23T03:14:55.769Z,41.9
2022-10-23T03:21:19.161Z,41.95
2022-10-23T03:27:45.834Z,41.98
2022-10-23T03:34:17.204Z,41.88
2022-10-23T03:40:44.294Z,41.88
2022-10-23T03:47:05.777Z,41.79
2022-10-23T03:53:34.880Z,41.98
2022-10-23T04:00:03.254Z,41.75
2022-10-23T04:06:27.657Z,41.87
2022-10-23T04:12:53.309Z,41.66
2022-10-23T04:19:18.754Z,41.82
2022-10-23T04:32:20.813Z,41.53
2022-10-23T04:38:49.644Z,41.45
2022-10-23T04:45:25.233Z,41.71
2022-10-23T04:51:55.812Z,41.89
2022-10-23T04:58:29.206Z,41.81
2022-10-23T05:04:57.958Z,41.64
2022-10-23T05:11:25.968Z,41.3
2022-10-23T05:18:07.730Z,41.24
2022-10-23T05:25:05.242Z,41.23
2022-10-23T05:31:30.877Z,41.19
2022-10-23T05:38:09.250Z,41.23
2022-10-23T05:44:44.425Z,41
2022-10-23T05:51:24.904Z,40.98
2022-10-23T05:57:59.711Z,41.26
2022-10-23T06:04:32.249Z,41.2
2022-10-23T06:10:58.983Z,41.33
2022-10-23T06:17:42.575Z,41.65
2022-10-23T06:24:08.635Z,41.58
2022-10-23T06:30:47.442Z,41.72
2022-10-23T06:37:23.362Z,41.74
2022-10-23T06:44:00.829Z,41.73
2022-10-23T06:50:31.872Z,41.73
2022-10-23T06:57:00.875Z,41.77
2022-10-23T07:03:29.300Z,41.8
2022-10-23T07:10:01.048Z,41.87
2022-10-23T07:16:26.901Z,41.83
2022-10-23T07:22:57.647Z,41.87
2022-10-23T07:29:28.882Z,41.8
2022-10-23T07:36:01.645Z,41.95
2022-10-23T07:42:22.847Z,41.94
2022-10-23T07:48:52.478Z,41.93
2022-10-23T07:55:23.018Z,41.87
2022-10-23T08:01:57.493Z,41.8
2022-10-23T08:08:20.953Z,41.88
2022-10-23T08:14:51.011Z,41.85
2022-10-23T08:21:15.820Z,41.85
2022-10-23T08:27:42.085Z,41.83
2022-10-23T08:34:08.941Z,41.77
2022-10-23T08:40:33.356Z,41.72
2022-10-23T08:47:35.366Z,41.69
2022-10-23T08:54:44.915Z,41.67
2022-10-23T09:01:48.323Z,41.74
2022-10-23T09:08:44.569Z,41.69
2022-10-23T09:15:54.096Z,41.76
2022-10-23T09:22:43.093Z,41.48
2022-10-23T09:29:28.101Z,41.16
2022-10-23T09:36:11.173Z,41.14
2022-10-23T09:42:58.253Z,41.11
2022-10-23T09:49:35.318Z,41.21
2022-10-23T09:56:12.268Z,41.41
2022-10-23T10:03:12.019Z,41.53
2022-10-23T10:10:04.040Z,41.61
2022-10-23T10:17:20.920Z,41.23
2022-10-23T10:24:19.946Z,41.43
2022-10-23T10:31:18.049Z,41.28
2022-10-23T10:38:25.372Z,41.51
2022-10-23T10:45:19.295Z,41.23
2022-10-23T10:52:26.220Z,41.29
2022-10-23T10:59:43.028Z,41.02
2022-10-23T11:06:42.013Z,40.89
2022-10-23T11:13:34.228Z,41.2
2022-10-23T11:20:35.956Z,41.3
2022-10-23T11:27:35.606Z,41.37
2022-10-23T11:34:44.717Z,41.03
2022-10-23T11:41:28.080Z,41.16
2022-10-23T11:48:18.525Z,41.23
2022-10-23T11:54:59.125Z,41.14
2022-10-23T12:01:50.785Z,41.21
2022-10-23T12:08:44.607Z,40.94
2022-10-23T12:15:49.150Z,40.82
2022-10-23T12:22:48.411Z,41.25
2022-10-23T12:29:45.097Z,41.31
2022-10-23T12:36:50.242Z,41.4
2022-10-23T12:43:52.340Z,41.44
2022-10-23T12:50:39.109Z,41.3
2022-10-23T12:57:31.971Z,41.23
2022-10-23T13:10:59.063Z,40.9
2022-10-23T13:17:44.049Z,41
2022-10-23T13:24:39.200Z,41.06
2022-10-23T13:31:30.048Z,41.15
2022-10-23T13:38:06.144Z,41.2
2022-10-23T13:44:54.456Z,41.23
2022-10-23T13:51:24.061Z,41.11
2022-10-23T13:57:57.906Z,40.72
2022-10-23T14:04:30.772Z,40.68
2022-10-23T14:11:03.473Z,40.79
2022-10-23T14:17:48.249Z,40.76
2022-10-23T14:24:14.403Z,41.09
2022-10-23T14:30:52.446Z,40.91
2022-10-23T14:37:15.180Z,40.74
2022-10-23T14:43:48.140Z,40.83
2022-10-23T14:50:29.077Z,40.74
2022-10-23T14:57:16.877Z,40.64
2022-10-23T15:03:43.028Z,40.8
2022-10-23T15:16:47.434Z,41.08
2022-10-23T15:23:15.099Z,40.96
2022-10-23T15:29:49.109Z,41.13
2022-10-23T15:36:37.007Z,41.02
2022-10-23T15:43:13.008Z,41.35
2022-10-23T15:49:37.540Z,41.5
2022-10-23T15:56:18.498Z,41.41
2022-10-23T16:02:48.501Z,41.42
2022-10-23T16:09:18.157Z,41.43
2022-10-23T16:15:49.191Z,41.44
2022-10-23T16:22:29.560Z,41.49
2022-10-23T16:29:03.152Z,41.46
2022-10-23T16:35:31.109Z,41.39
2022-10-23T16:42:05.219Z,41.57
2022-10-23T16:48:35.127Z,41.49
2022-10-23T16:55:01.590Z,41.46
2022-10-23T17:01:30.520Z,41.48
2022-10-23T17:07:58.388Z,41.56
2022-10-23T17:14:36.857Z,41.47
2022-10-23T17:21:09.089Z,41.55
2022-10-23T17:27:35.279Z,41.46
2022-10-23T17:34:05.193Z,41.55
2022-10-23T17:40:34.480Z,41.62
2022-10-23T17:47:11.720Z,41.64
2022-10-23T17:53:58.199Z,41.58
2022-10-23T18:00:30.231Z,41.6
2022-10-23T18:07:06.130Z,41.67
2022-10-23T18:13:35.356Z,41.44
2022-10-23T18:20:07.206Z,41.55
2022-10-23T18:26:31.205Z,41.38
2022-10-23T18:33:01.284Z,41.29
2022-10-23T18:39:31.219Z,41.43
2022-10-23T18:46:09.620Z,41.37
2022-10-23T18:52:47.860Z,41.49
2022-10-23T18:59:20.581Z,41.44
2022-10-23T19:05:51.146Z,41.61
2022-10-23T19:12:22.762Z,41.81
2022-10-23T19:18:52.656Z,41.85
2022-10-23T19:25:38.271Z,41.92
2022-10-23T19:32:23.242Z,41.91
2022-10-23T19:38:54.922Z,41.91
2022-10-23T19:45:22.305Z,41.95
2022-10-23T19:51:51.647Z,41.93
2022-10-23T19:58:19.314Z,41.98
2022-10-23T20:04:45.249Z,42.18
2022-10-23T20:11:20.730Z,42.2
2022-10-23T20:17:49.700Z,42.05
2022-10-23T20:24:14.309Z,42.16
2022-10-23T20:30:49.692Z,42.13
2022-10-23T20:37:13.344Z,42.12
2022-10-23T20:43:46.298Z,41.99
2022-10-23T20:50:09.229Z,42
2022-10-23T20:56:35.295Z,42.07
2022-10-23T21:03:09.087Z,41.88
2022-10-23T21:09:35.848Z,42.11
2022-10-23T21:16:13.676Z,41.81
2022-10-23T21:22:46.872Z,42.05
2022-10-23T21:29:27.482Z,41.81
2022-10-23T21:35:58.167Z,42.07
2022-10-23T21:42:25.917Z,42.05
2022-10-23T21:48:56.213Z,42.11
2022-10-23T21:55:33.702Z,42.17
2022-10-23T22:02:05.792Z,42.16
2022-10-23T22:08:38.573Z,42.12
2022-10-23T22:15:05.306Z,42.02
2022-10-23T22:21:38.329Z,42.06
2022-10-23T22:28:24.823Z,42.15
2022-10-23T22:35:05.713Z,42.26
2022-10-23T22:41:37.717Z,42.24
2022-10-23T22:48:10.271Z,42.17
2022-10-23T22:54:39.476Z,42.28
2022-10-23T23:01:00.960Z,42.18
2022-10-23T23:07:28.383Z,41.86
2022-10-23T23:14:01.097Z,41.97
2022-10-23T23:20:31.470Z,42.19
2022-10-23T23:26:59.424Z,41.83
2022-10-23T23:33:28.673Z,41.8
2022-10-23T23:40:17.808Z,41.9
2022-10-23T23:46:45.393Z,42.06
2022-10-23T23:53:17.732Z,41.67
2022-10-23T23:59:43.281Z,41.87
